Lake Tacoma, Illinois
Current Conditions -  °F | °C
As of 5:52 AM on Friday 24 Oct 2014 (Local Time) from KMDH Reporting Station
Overcast Overcast  
Wind Chill: 10°   Ceiling: 2600
Heat Index: 10°   Visibility: 10mi
Dew Point:   Wind: 3mph
Humidity: 89%   Direction: 150°SSE
Pressure: 30.11"   Gusts: NA
Location:  37.7248°N, 89.197°W
Report Text: KMDH 241052Z AUTO 15003KT 10SM OVC026 10/08 A3011 RMK AO2 SLP198 T01000083
Loading
Personal Weather Stations






























Interactive Weather Map
Tropical Storm Tracking
New forecast layout! Learn more

10-Day Weather Forecast

Advertisements
Track Severe Weather on mobile